sensor_id;sensor_type;location;lat;lon;timestamp;P1;durP1;ratioP1;P2;durP2;ratioP2
8636;SDS011;4356;49.068;8.658;2023-11-19T00:02:08;1.93;;;1.83;;
8636;SDS011;4356;49.068;8.658;2023-11-19T00:04:37;1.90;;;1.80;;
8636;SDS011;4356;49.068;8.658;2023-11-19T00:07:04;1.67;;;1.67;;
8636;SDS011;4356;49.068;8.658;2023-11-19T00:09:31;1.73;;;1.63;;
8636;SDS011;4356;49.068;8.658;2023-11-19T00:12:02;1.90;;;1.80;;
8636;SDS011;4356;49.068;8.658;2023-11-19T00:14:27;1.83;;;1.73;;
8636;SDS011;4356;49.068;8.658;2023-11-19T00:16:54;1.80;;;1.70;;
8636;SDS011;4356;49.068;8.658;2023-11-19T00:19:19;1.80;;;1.70;;
8636;SDS011;4356;49.068;8.658;2023-11-19T00:21:45;1.87;;;1.77;;
8636;SDS011;4356;49.068;8.658;2023-11-19T00:24:11;1.83;;;1.73;;
8636;SDS011;4356;49.068;8.658;2023-11-19T00:26:37;2.00;;;1.90;;
8636;SDS011;4356;49.068;8.658;2023-11-19T00:29:03;1.63;;;1.53;;
8636;SDS011;4356;49.068;8.658;2023-11-19T00:31:28;2.07;;;1.97;;
8636;SDS011;4356;49.068;8.658;2023-11-19T00:33:54;2.30;;;2.10;;
8636;SDS011;4356;49.068;8.658;2023-11-19T00:36:19;2.43;;;2.23;;
8636;SDS011;4356;49.068;8.658;2023-11-19T00:38:45;2.07;;;1.97;;
8636;SDS011;4356;49.068;8.658;2023-11-19T00:41:10;2.03;;;1.93;;
8636;SDS011;4356;49.068;8.658;2023-11-19T00:43:36;2.60;;;2.40;;
8636;SDS011;4356;49.068;8.658;2023-11-19T00:46:01;3.33;;;3.13;;
8636;SDS011;4356;49.068;8.658;2023-11-19T00:48:28;3.40;;;3.20;;
8636;SDS011;4356;49.068;8.658;2023-11-19T00:50:53;3.40;;;3.20;;
8636;SDS011;4356;49.068;8.658;2023-11-19T00:53:19;1.23;;;1.23;;
8636;SDS011;4356;49.068;8.658;2023-11-19T00:55:44;1.37;;;0.57;;
8636;SDS011;4356;49.068;8.658;2023-11-19T00:58:09;2.23;;;0.63;;
8636;SDS011;4356;49.068;8.658;2023-11-19T01:00:35;0.30;;;0.30;;
8636;SDS011;4356;49.068;8.658;2023-11-19T01:03:00;0.73;;;0.73;;
8636;SDS011;4356;49.068;8.658;2023-11-19T01:05:26;0.50;;;0.50;;
8636;SDS011;4356;49.068;8.658;2023-11-19T01:07:53;0.60;;;0.60;;
8636;SDS011;4356;49.068;8.658;2023-11-19T01:10:19;0.50;;;0.50;;
8636;SDS011;4356;49.068;8.658;2023-11-19T01:12:45;0.50;;;0.50;;
8636;SDS011;4356;49.068;8.658;2023-11-19T01:15:10;0.73;;;0.73;;
8636;SDS011;4356;49.068;8.658;2023-11-19T01:17:39;0.50;;;0.50;;
8636;SDS011;4356;49.068;8.658;2023-11-19T01:20:04;0.40;;;0.40;;
8636;SDS011;4356;49.068;8.658;2023-11-19T01:22:31;0.40;;;0.40;;
8636;SDS011;4356;49.068;8.658;2023-11-19T01:24:57;0.50;;;0.50;;
8636;SDS011;4356;49.068;8.658;2023-11-19T01:27:23;0.30;;;0.30;;
8636;SDS011;4356;49.068;8.658;2023-11-19T01:29:49;0.20;;;0.20;;
8636;SDS011;4356;49.068;8.658;2023-11-19T01:32:14;0.73;;;0.73;;
8636;SDS011;4356;49.068;8.658;2023-11-19T01:34:40;0.47;;;0.47;;
8636;SDS011;4356;49.068;8.658;2023-11-19T01:37:06;0.33;;;0.33;;
8636;SDS011;4356;49.068;8.658;2023-11-19T01:39:31;0.43;;;0.27;;
8636;SDS011;4356;49.068;8.658;2023-11-19T01:41:56;0.50;;;0.50;;
8636;SDS011;4356;49.068;8.658;2023-11-19T01:44:22;0.30;;;0.30;;
8636;SDS011;4356;49.068;8.658;2023-11-19T01:46:47;0.30;;;0.30;;
8636;SDS011;4356;49.068;8.658;2023-11-19T01:49:17;0.30;;;0.30;;
8636;SDS011;4356;49.068;8.658;2023-11-19T01:51:43;0.20;;;0.20;;
8636;SDS011;4356;49.068;8.658;2023-11-19T01:54:10;0.47;;;0.47;;
8636;SDS011;4356;49.068;8.658;2023-11-19T01:56:37;0.30;;;0.30;;
8636;SDS011;4356;49.068;8.658;2023-11-19T01:59:05;0.40;;;0.40;;
8636;SDS011;4356;49.068;8.658;2023-11-19T02:01:32;0.67;;;0.67;;
8636;SDS011;4356;49.068;8.658;2023-11-19T02:03:59;0.33;;;0.33;;
8636;SDS011;4356;49.068;8.658;2023-11-19T02:06:26;0.37;;;0.37;;
8636;SDS011;4356;49.068;8.658;2023-11-19T02:08:53;0.20;;;0.20;;
8636;SDS011;4356;49.068;8.658;2023-11-19T02:11:18;0.50;;;0.40;;
8636;SDS011;4356;49.068;8.658;2023-11-19T02:13:44;0.30;;;0.30;;
8636;SDS011;4356;49.068;8.658;2023-11-19T02:16:09;0.57;;;0.57;;
8636;SDS011;4356;49.068;8.658;2023-11-19T02:18:36;0.33;;;0.33;;
8636;SDS011;4356;49.068;8.658;2023-11-19T02:21:01;1.20;;;0.63;;
8636;SDS011;4356;49.068;8.658;2023-11-19T02:23:27;0.43;;;0.43;;
8636;SDS011;4356;49.068;8.658;2023-11-19T02:26:05;3.97;;;0.67;;
8636;SDS011;4356;49.068;8.658;2023-11-19T02:28:44;0.57;;;0.57;;
8636;SDS011;4356;49.068;8.658;2023-11-19T02:31:10;0.37;;;0.37;;
8636;SDS011;4356;49.068;8.658;2023-11-19T02:33:36;0.53;;;0.53;;
8636;SDS011;4356;49.068;8.658;2023-11-19T02:36:03;0.33;;;0.33;;
8636;SDS011;4356;49.068;8.658;2023-11-19T02:38:35;0.43;;;0.43;;
8636;SDS011;4356;49.068;8.658;2023-11-19T02:41:04;0.40;;;0.40;;
8636;SDS011;4356;49.068;8.658;2023-11-19T02:43:30;0.43;;;0.43;;
8636;SDS011;4356;49.068;8.658;2023-11-19T02:45:58;0.43;;;0.43;;
8636;SDS011;4356;49.068;8.658;2023-11-19T02:48:26;0.50;;;0.50;;
8636;SDS011;4356;49.068;8.658;2023-11-19T02:50:52;0.83;;;0.40;;
8636;SDS011;4356;49.068;8.658;2023-11-19T02:53:17;0.70;;;0.60;;
8636;SDS011;4356;49.068;8.658;2023-11-19T02:55:43;0.37;;;0.37;;
8636;SDS011;4356;49.068;8.658;2023-11-19T02:58:13;0.40;;;0.40;;
8636;SDS011;4356;49.068;8.658;2023-11-19T03:00:45;0.50;;;0.50;;
8636;SDS011;4356;49.068;8.658;2023-11-19T03:03:21;0.67;;;0.57;;
8636;SDS011;4356;49.068;8.658;2023-11-19T03:05:50;1.90;;;1.80;;
8636;SDS011;4356;49.068;8.658;2023-11-19T03:08:16;0.40;;;0.40;;
8636;SDS011;4356;49.068;8.658;2023-11-19T03:10:42;0.53;;;0.53;;
8636;SDS011;4356;49.068;8.658;2023-11-19T03:13:10;0.37;;;0.37;;
8636;SDS011;4356;49.068;8.658;2023-11-19T03:15:38;0.40;;;0.40;;
8636;SDS011;4356;49.068;8.658;2023-11-19T03:18:04;0.40;;;0.40;;
8636;SDS011;4356;49.068;8.658;2023-11-19T03:20:29;0.60;;;0.60;;
8636;SDS011;4356;49.068;8.658;2023-11-19T03:22:55;1.83;;;0.40;;
8636;SDS011;4356;49.068;8.658;2023-11-19T03:25:22;0.57;;;0.57;;
8636;SDS011;4356;49.068;8.658;2023-11-19T03:27:50;0.73;;;0.73;;
8636;SDS011;4356;49.068;8.658;2023-11-19T03:30:16;0.30;;;0.30;;
8636;SDS011;4356;49.068;8.658;2023-11-19T03:32:42;1.23;;;0.40;;
8636;SDS011;4356;49.068;8.658;2023-11-19T03:35:08;0.73;;;0.73;;
8636;SDS011;4356;49.068;8.658;2023-11-19T03:37:34;0.60;;;0.60;;
8636;SDS011;4356;49.068;8.658;2023-11-19T03:39:59;0.43;;;0.43;;
8636;SDS011;4356;49.068;8.658;2023-11-19T03:42:25;0.50;;;0.50;;
8636;SDS011;4356;49.068;8.658;2023-11-19T03:44:52;0.73;;;0.73;;
8636;SDS011;4356;49.068;8.658;2023-11-19T03:47:18;0.30;;;0.30;;
8636;SDS011;4356;49.068;8.658;2023-11-19T03:49:50;0.40;;;0.40;;
8636;SDS011;4356;49.068;8.658;2023-11-19T03:52:16;0.50;;;0.50;;
8636;SDS011;4356;49.068;8.658;2023-11-19T03:54:42;0.43;;;0.40;;
8636;SDS011;4356;49.068;8.658;2023-11-19T03:57:08;0.30;;;0.30;;
8636;SDS011;4356;49.068;8.658;2023-11-19T03:59:35;0.50;;;0.50;;
8636;SDS011;4356;49.068;8.658;2023-11-19T04:02:01;0.40;;;0.40;;
8636;SDS011;4356;49.068;8.658;2023-11-19T04:04:27;0.30;;;0.30;;
8636;SDS011;4356;49.068;8.658;2023-11-19T04:06:53;0.50;;;0.50;;
8636;SDS011;4356;49.068;8.658;2023-11-19T04:09:19;0.43;;;0.43;;
8636;SDS011;4356;49.068;8.658;2023-11-19T04:11:44;0.67;;;0.33;;
8636;SDS011;4356;49.068;8.658;2023-11-19T04:14:12;0.30;;;0.30;;
8636;SDS011;4356;49.068;8.658;2023-11-19T04:16:38;1.60;;;0.50;;
8636;SDS011;4356;49.068;8.658;2023-11-19T04:19:04;1.83;;;0.77;;
8636;SDS011;4356;49.068;8.658;2023-11-19T04:21:29;0.30;;;0.30;;
8636;SDS011;4356;49.068;8.658;2023-11-19T04:23:55;0.50;;;0.50;;
8636;SDS011;4356;49.068;8.658;2023-11-19T04:26:21;0.43;;;0.43;;
8636;SDS011;4356;49.068;8.658;2023-11-19T04:28:46;0.60;;;0.60;;
8636;SDS011;4356;49.068;8.658;2023-11-19T04:31:14;0.57;;;0.57;;
8636;SDS011;4356;49.068;8.658;2023-11-19T04:33:41;0.87;;;0.40;;
8636;SDS011;4356;49.068;8.658;2023-11-19T04:36:06;0.30;;;0.30;;
8636;SDS011;4356;49.068;8.658;2023-11-19T04:38:32;0.27;;;0.27;;
8636;SDS011;4356;49.068;8.658;2023-11-19T04:40:57;0.40;;;0.40;;
8636;SDS011;4356;49.068;8.658;2023-11-19T04:43:23;0.57;;;0.57;;
8636;SDS011;4356;49.068;8.658;2023-11-19T04:45:48;0.37;;;0.37;;
8636;SDS011;4356;49.068;8.658;2023-11-19T04:48:13;0.37;;;0.30;;
8636;SDS011;4356;49.068;8.658;2023-11-19T04:50:39;0.40;;;0.30;;
8636;SDS011;4356;49.068;8.658;2023-11-19T04:53:04;0.53;;;0.53;;
8636;SDS011;4356;49.068;8.658;2023-11-19T04:55:30;0.40;;;0.40;;
8636;SDS011;4356;49.068;8.658;2023-11-19T04:57:55;0.60;;;0.60;;
8636;SDS011;4356;49.068;8.658;2023-11-19T05:00:21;0.50;;;0.50;;
8636;SDS011;4356;49.068;8.658;2023-11-19T05:02:47;0.30;;;0.30;;
8636;SDS011;4356;49.068;8.658;2023-11-19T05:05:12;0.50;;;0.50;;
8636;SDS011;4356;49.068;8.658;2023-11-19T05:07:37;0.63;;;0.63;;
8636;SDS011;4356;49.068;8.658;2023-11-19T05:10:03;0.30;;;0.30;;
8636;SDS011;4356;49.068;8.658;2023-11-19T05:12:29;0.20;;;0.20;;
8636;SDS011;4356;49.068;8.658;2023-11-19T05:14:54;0.30;;;0.30;;
8636;SDS011;4356;49.068;8.658;2023-11-19T05:17:21;0.33;;;0.33;;
8636;SDS011;4356;49.068;8.658;2023-11-19T05:19:46;0.33;;;0.33;;
8636;SDS011;4356;49.068;8.658;2023-11-19T05:22:13;0.30;;;0.30;;
8636;SDS011;4356;49.068;8.658;2023-11-19T05:24:38;0.50;;;0.50;;
8636;SDS011;4356;49.068;8.658;2023-11-19T05:27:04;0.10;;;0.10;;
8636;SDS011;4356;49.068;8.658;2023-11-19T05:29:30;0.20;;;0.20;;
8636;SDS011;4356;49.068;8.658;2023-11-19T05:31:55;0.30;;;0.30;;
8636;SDS011;4356;49.068;8.658;2023-11-19T05:34:20;0.50;;;0.50;;
8636;SDS011;4356;49.068;8.658;2023-11-19T05:36:46;0.13;;;0.13;;
8636;SDS011;4356;49.068;8.658;2023-11-19T05:39:12;0.30;;;0.30;;
8636;SDS011;4356;49.068;8.658;2023-11-19T05:41:38;0.40;;;0.40;;
8636;SDS011;4356;49.068;8.658;2023-11-19T05:44:04;2.73;;;0.23;;
8636;SDS011;4356;49.068;8.658;2023-11-19T05:46:29;0.30;;;0.30;;
8636;SDS011;4356;49.068;8.658;2023-11-19T05:48:54;0.50;;;0.50;;
8636;SDS011;4356;49.068;8.658;2023-11-19T05:51:20;0.40;;;0.40;;
8636;SDS011;4356;49.068;8.658;2023-11-19T05:53:45;0.30;;;0.30;;
8636;SDS011;4356;49.068;8.658;2023-11-19T05:56:10;0.20;;;0.20;;
8636;SDS011;4356;49.068;8.658;2023-11-19T05:58:36;0.63;;;0.33;;
8636;SDS011;4356;49.068;8.658;2023-11-19T06:01:02;0.10;;;0.10;;
8636;SDS011;4356;49.068;8.658;2023-11-19T06:03:28;0.37;;;0.37;;
8636;SDS011;4356;49.068;8.658;2023-11-19T06:05:54;0.27;;;0.27;;
8636;SDS011;4356;49.068;8.658;2023-11-19T06:08:21;0.30;;;0.30;;
8636;SDS011;4356;49.068;8.658;2023-11-19T06:10:47;0.53;;;0.53;;
8636;SDS011;4356;49.068;8.658;2023-11-19T06:13:15;0.30;;;0.30;;
8636;SDS011;4356;49.068;8.658;2023-11-19T06:15:44;0.30;;;0.30;;
8636;SDS011;4356;49.068;8.658;2023-11-19T06:18:09;0.37;;;0.37;;
8636;SDS011;4356;49.068;8.658;2023-11-19T06:20:37;0.30;;;0.30;;
8636;SDS011;4356;49.068;8.658;2023-11-19T06:23:03;0.30;;;0.30;;
8636;SDS011;4356;49.068;8.658;2023-11-19T06:25:28;0.37;;;0.37;;
8636;SDS011;4356;49.068;8.658;2023-11-19T06:27:54;0.50;;;0.50;;
8636;SDS011;4356;49.068;8.658;2023-11-19T06:30:19;0.47;;;0.47;;
8636;SDS011;4356;49.068;8.658;2023-11-19T06:32:48;0.20;;;0.20;;
8636;SDS011;4356;49.068;8.658;2023-11-19T06:35:13;0.20;;;0.20;;
8636;SDS011;4356;49.068;8.658;2023-11-19T06:37:39;0.27;;;0.27;;
8636;SDS011;4356;49.068;8.658;2023-11-19T06:40:05;0.20;;;0.20;;
8636;SDS011;4356;49.068;8.658;2023-11-19T06:42:31;0.20;;;0.20;;
8636;SDS011;4356;49.068;8.658;2023-11-19T06:44:57;0.40;;;0.40;;
8636;SDS011;4356;49.068;8.658;2023-11-19T06:47:26;0.20;;;0.20;;
8636;SDS011;4356;49.068;8.658;2023-11-19T06:49:52;0.20;;;0.20;;
8636;SDS011;4356;49.068;8.658;2023-11-19T06:52:18;1.03;;;0.50;;
8636;SDS011;4356;49.068;8.658;2023-11-19T06:54:44;0.10;;;0.10;;
8636;SDS011;4356;49.068;8.658;2023-11-19T06:57:10;0.20;;;0.20;;
8636;SDS011;4356;49.068;8.658;2023-11-19T06:59:36;0.30;;;0.30;;
8636;SDS011;4356;49.068;8.658;2023-11-19T07:02:02;0.50;;;0.40;;
8636;SDS011;4356;49.068;8.658;2023-11-19T07:04:27;0.30;;;0.30;;
8636;SDS011;4356;49.068;8.658;2023-11-19T07:06:53;0.20;;;0.20;;
8636;SDS011;4356;49.068;8.658;2023-11-19T07:09:18;0.10;;;0.10;;
8636;SDS011;4356;49.068;8.658;2023-11-19T07:11:44;0.40;;;0.40;;
8636;SDS011;4356;49.068;8.658;2023-11-19T07:14:10;0.30;;;0.30;;
8636;SDS011;4356;49.068;8.658;2023-11-19T07:16:36;0.20;;;0.20;;
8636;SDS011;4356;49.068;8.658;2023-11-19T07:19:05;0.20;;;0.20;;
8636;SDS011;4356;49.068;8.658;2023-11-19T07:21:31;0.20;;;0.20;;
8636;SDS011;4356;49.068;8.658;2023-11-19T07:23:58;0.10;;;0.10;;
8636;SDS011;4356;49.068;8.658;2023-11-19T07:26:23;0.43;;;0.30;;
8636;SDS011;4356;49.068;8.658;2023-11-19T07:28:49;0.20;;;0.20;;
8636;SDS011;4356;49.068;8.658;2023-11-19T07:31:15;0.30;;;0.30;;
8636;SDS011;4356;49.068;8.658;2023-11-19T07:33:40;0.67;;;0.40;;
8636;SDS011;4356;49.068;8.658;2023-11-19T07:36:09;0.27;;;0.27;;
8636;SDS011;4356;49.068;8.658;2023-11-19T07:38:35;0.20;;;0.20;;
8636;SDS011;4356;49.068;8.658;2023-11-19T07:41:01;0.20;;;0.20;;
8636;SDS011;4356;49.068;8.658;2023-11-19T07:43:26;0.40;;;0.40;;
8636;SDS011;4356;49.068;8.658;2023-11-19T07:45:52;0.20;;;0.20;;
8636;SDS011;4356;49.068;8.658;2023-11-19T07:48:17;0.20;;;0.20;;
8636;SDS011;4356;49.068;8.658;2023-11-19T07:50:47;0.17;;;0.17;;
8636;SDS011;4356;49.068;8.658;2023-11-19T07:53:15;0.40;;;0.40;;
8636;SDS011;4356;49.068;8.658;2023-11-19T07:55:41;0.30;;;0.30;;
8636;SDS011;4356;49.068;8.658;2023-11-19T07:58:06;0.30;;;0.20;;
8636;SDS011;4356;49.068;8.658;2023-11-19T08:00:31;0.37;;;0.37;;
8636;SDS011;4356;49.068;8.658;2023-11-19T08:02:57;1.13;;;0.33;;
8636;SDS011;4356;49.068;8.658;2023-11-19T08:05:22;0.30;;;0.30;;
8636;SDS011;4356;49.068;8.658;2023-11-19T08:07:50;0.33;;;0.33;;
8636;SDS011;4356;49.068;8.658;2023-11-19T08:10:18;0.27;;;0.27;;
8636;SDS011;4356;49.068;8.658;2023-11-19T08:12:44;0.27;;;0.27;;
8636;SDS011;4356;49.068;8.658;2023-11-19T08:15:09;0.30;;;0.30;;
8636;SDS011;4356;49.068;8.658;2023-11-19T08:17:35;0.33;;;0.33;;
8636;SDS011;4356;49.068;8.658;2023-11-19T08:20:01;0.37;;;0.33;;
8636;SDS011;4356;49.068;8.658;2023-11-19T08:22:26;0.30;;;0.30;;
8636;SDS011;4356;49.068;8.658;2023-11-19T08:24:51;0.20;;;0.20;;
8636;SDS011;4356;49.068;8.658;2023-11-19T08:27:17;0.30;;;0.30;;
8636;SDS011;4356;49.068;8.658;2023-11-19T08:29:42;0.40;;;0.40;;
8636;SDS011;4356;49.068;8.658;2023-11-19T08:32:07;0.20;;;0.20;;
8636;SDS011;4356;49.068;8.658;2023-11-19T08:34:33;1.30;;;0.30;;
8636;SDS011;4356;49.068;8.658;2023-11-19T08:36:59;0.30;;;0.30;;
8636;SDS011;4356;49.068;8.658;2023-11-19T08:39:24;0.27;;;0.27;;
8636;SDS011;4356;49.068;8.658;2023-11-19T08:41:50;0.40;;;0.33;;
8636;SDS011;4356;49.068;8.658;2023-11-19T08:44:15;0.20;;;0.20;;
8636;SDS011;4356;49.068;8.658;2023-11-19T08:46:50;0.50;;;0.50;;
8636;SDS011;4356;49.068;8.658;2023-11-19T08:49:16;0.57;;;0.30;;
8636;SDS011;4356;49.068;8.658;2023-11-19T08:51:42;0.20;;;0.20;;
8636;SDS011;4356;49.068;8.658;2023-11-19T08:54:07;0.40;;;0.40;;
8636;SDS011;4356;49.068;8.658;2023-11-19T08:56:33;0.40;;;0.40;;
8636;SDS011;4356;49.068;8.658;2023-11-19T08:59:00;0.40;;;0.40;;
8636;SDS011;4356;49.068;8.658;2023-11-19T09:01:25;0.30;;;0.30;;
8636;SDS011;4356;49.068;8.658;2023-11-19T09:03:51;0.30;;;0.30;;
8636;SDS011;4356;49.068;8.658;2023-11-19T09:06:17;0.50;;;0.50;;
8636;SDS011;4356;49.068;8.658;2023-11-19T09:08:42;0.60;;;0.60;;
8636;SDS011;4356;49.068;8.658;2023-11-19T09:11:08;1.10;;;0.40;;
8636;SDS011;4356;49.068;8.658;2023-11-19T09:13:34;0.40;;;0.40;;
8636;SDS011;4356;49.068;8.658;2023-11-19T09:16:00;0.40;;;0.40;;
8636;SDS011;4356;49.068;8.658;2023-11-19T09:18:28;0.20;;;0.20;;
8636;SDS011;4356;49.068;8.658;2023-11-19T09:20:54;1.63;;;0.47;;
8636;SDS011;4356;49.068;8.658;2023-11-19T09:23:19;0.63;;;0.50;;
8636;SDS011;4356;49.068;8.658;2023-11-19T09:25:45;0.33;;;0.33;;
8636;SDS011;4356;49.068;8.658;2023-11-19T09:28:10;0.30;;;0.30;;
8636;SDS011;4356;49.068;8.658;2023-11-19T09:30:36;0.20;;;0.20;;
8636;SDS011;4356;49.068;8.658;2023-11-19T09:33:01;0.70;;;0.60;;
8636;SDS011;4356;49.068;8.658;2023-11-19T09:35:27;0.40;;;0.40;;
8636;SDS011;4356;49.068;8.658;2023-11-19T09:37:52;0.33;;;0.30;;
8636;SDS011;4356;49.068;8.658;2023-11-19T09:40:18;0.40;;;0.40;;
8636;SDS011;4356;49.068;8.658;2023-11-19T09:42:44;0.97;;;0.30;;
8636;SDS011;4356;49.068;8.658;2023-11-19T09:45:14;0.50;;;0.50;;
8636;SDS011;4356;49.068;8.658;2023-11-19T09:47:44;0.50;;;0.50;;
8636;SDS011;4356;49.068;8.658;2023-11-19T09:50:17;0.87;;;0.30;;
8636;SDS011;4356;49.068;8.658;2023-11-19T09:52:44;0.30;;;0.30;;
8636;SDS011;4356;49.068;8.658;2023-11-19T09:55:10;0.40;;;0.30;;
8636;SDS011;4356;49.068;8.658;2023-11-19T09:57:35;0.50;;;0.50;;
8636;SDS011;4356;49.068;8.658;2023-11-19T10:00:03;0.40;;;0.40;;
8636;SDS011;4356;49.068;8.658;2023-11-19T10:02:33;0.30;;;0.30;;
8636;SDS011;4356;49.068;8.658;2023-11-19T10:05:11;0.60;;;0.50;;
8636;SDS011;4356;49.068;8.658;2023-11-19T10:07:37;0.13;;;0.13;;
8636;SDS011;4356;49.068;8.658;2023-11-19T10:10:03;0.40;;;0.40;;
8636;SDS011;4356;49.068;8.658;2023-11-19T10:12:29;0.47;;;0.47;;
8636;SDS011;4356;49.068;8.658;2023-11-19T10:14:56;0.40;;;0.40;;
8636;SDS011;4356;49.068;8.658;2023-11-19T10:17:27;1.03;;;0.50;;
8636;SDS011;4356;49.068;8.658;2023-11-19T10:20:01;1.50;;;0.77;;
8636;SDS011;4356;49.068;8.658;2023-11-19T10:22:28;0.87;;;0.40;;
8636;SDS011;4356;49.068;8.658;2023-11-19T10:24:53;0.30;;;0.30;;
8636;SDS011;4356;49.068;8.658;2023-11-19T10:27:19;0.47;;;0.47;;
8636;SDS011;4356;49.068;8.658;2023-11-19T10:29:45;0.70;;;0.70;;
8636;SDS011;4356;49.068;8.658;2023-11-19T10:32:12;0.37;;;0.37;;
8636;SDS011;4356;49.068;8.658;2023-11-19T10:34:38;0.57;;;0.57;;
8636;SDS011;4356;49.068;8.658;2023-11-19T10:37:04;0.23;;;0.23;;
8636;SDS011;4356;49.068;8.658;2023-11-19T10:42:21;0.87;;;0.40;;
8636;SDS011;4356;49.068;8.658;2023-11-19T10:44:47;0.40;;;0.40;;
8636;SDS011;4356;49.068;8.658;2023-11-19T10:47:15;0.47;;;0.47;;
8636;SDS011;4356;49.068;8.658;2023-11-19T10:49:44;0.40;;;0.40;;
8636;SDS011;4356;49.068;8.658;2023-11-19T10:52:13;0.70;;;0.70;;
8636;SDS011;4356;49.068;8.658;2023-11-19T10:54:43;1.33;;;0.70;;
8636;SDS011;4356;49.068;8.658;2023-11-19T10:57:09;0.77;;;0.77;;
8636;SDS011;4356;49.068;8.658;2023-11-19T10:59:37;0.33;;;0.23;;
8636;SDS011;4356;49.068;8.658;2023-11-19T11:02:03;1.13;;;0.67;;
8636;SDS011;4356;49.068;8.658;2023-11-19T11:04:36;0.30;;;0.30;;
8636;SDS011;4356;49.068;8.658;2023-11-19T11:07:05;0.40;;;0.40;;
8636;SDS011;4356;49.068;8.658;2023-11-19T11:09:32;2.50;;;0.30;;
8636;SDS011;4356;49.068;8.658;2023-11-19T11:11:58;0.43;;;0.43;;
8636;SDS011;4356;49.068;8.658;2023-11-19T11:14:24;0.43;;;0.30;;
8636;SDS011;4356;49.068;8.658;2023-11-19T11:16:50;0.63;;;0.63;;
8636;SDS011;4356;49.068;8.658;2023-11-19T11:19:18;0.83;;;0.63;;
8636;SDS011;4356;49.068;8.658;2023-11-19T11:21:45;0.67;;;0.50;;
8636;SDS011;4356;49.068;8.658;2023-11-19T11:27:13;0.93;;;0.80;;
8636;SDS011;4356;49.068;8.658;2023-11-19T11:30:01;0.60;;;0.60;;
8636;SDS011;4356;49.068;8.658;2023-11-19T11:32:36;0.60;;;0.60;;
8636;SDS011;4356;49.068;8.658;2023-11-19T11:37:39;0.40;;;0.40;;
8636;SDS011;4356;49.068;8.658;2023-11-19T11:40:16;0.50;;;0.50;;
8636;SDS011;4356;49.068;8.658;2023-11-19T11:42:43;0.50;;;0.50;;
8636;SDS011;4356;49.068;8.658;2023-11-19T11:45:13;0.70;;;0.70;;
8636;SDS011;4356;49.068;8.658;2023-11-19T11:50:09;1.13;;;0.53;;
8636;SDS011;4356;49.068;8.658;2023-11-19T11:55:25;2.37;;;0.63;;
8636;SDS011;4356;49.068;8.658;2023-11-19T11:57:51;1.80;;;0.40;;
8636;SDS011;4356;49.068;8.658;2023-11-19T12:00:26;0.70;;;0.70;;
8636;SDS011;4356;49.068;8.658;2023-11-19T12:02:55;0.50;;;0.50;;
8636;SDS011;4356;49.068;8.658;2023-11-19T12:05:22;0.33;;;0.33;;
8636;SDS011;4356;49.068;8.658;2023-11-19T12:08:24;0.50;;;0.50;;
8636;SDS011;4356;49.068;8.658;2023-11-19T12:10:47;0.40;;;0.40;;
8636;SDS011;4356;49.068;8.658;2023-11-19T12:13:15;0.30;;;0.30;;
8636;SDS011;4356;49.068;8.658;2023-11-19T12:18:30;0.50;;;0.50;;
8636;SDS011;4356;49.068;8.658;2023-11-19T12:20:57;0.40;;;0.40;;
8636;SDS011;4356;49.068;8.658;2023-11-19T12:23:25;0.73;;;0.53;;
8636;SDS011;4356;49.068;8.658;2023-11-19T12:25:51;0.57;;;0.57;;
8636;SDS011;4356;49.068;8.658;2023-11-19T12:28:17;0.50;;;0.50;;
8636;SDS011;4356;49.068;8.658;2023-11-19T12:30:44;0.67;;;0.60;;
8636;SDS011;4356;49.068;8.658;2023-11-19T12:33:10;0.70;;;0.50;;
8636;SDS011;4356;49.068;8.658;2023-11-19T12:38:22;0.80;;;0.60;;
8636;SDS011;4356;49.068;8.658;2023-11-19T12:43:30;0.40;;;0.40;;
8636;SDS011;4356;49.068;8.658;2023-11-19T12:45:56;0.33;;;0.33;;
8636;SDS011;4356;49.068;8.658;2023-11-19T12:48:21;0.63;;;0.63;;
8636;SDS011;4356;49.068;8.658;2023-11-19T12:50:52;0.40;;;0.40;;
8636;SDS011;4356;49.068;8.658;2023-11-19T12:53:22;0.40;;;0.40;;
8636;SDS011;4356;49.068;8.658;2023-11-19T12:55:48;0.60;;;0.60;;
8636;SDS011;4356;49.068;8.658;2023-11-19T12:58:29;1.43;;;0.80;;
8636;SDS011;4356;49.068;8.658;2023-11-19T13:01:03;0.53;;;0.53;;
8636;SDS011;4356;49.068;8.658;2023-11-19T13:03:34;2.03;;;0.87;;
8636;SDS011;4356;49.068;8.658;2023-11-19T13:06:04;0.50;;;0.50;;
8636;SDS011;4356;49.068;8.658;2023-11-19T13:08:49;0.43;;;0.43;;
8636;SDS011;4356;49.068;8.658;2023-11-19T13:11:30;0.40;;;0.40;;
8636;SDS011;4356;49.068;8.658;2023-11-19T13:14:04;0.60;;;0.60;;
8636;SDS011;4356;49.068;8.658;2023-11-19T13:16:30;0.30;;;0.30;;
8636;SDS011;4356;49.068;8.658;2023-11-19T13:18:56;1.10;;;0.60;;
8636;SDS011;4356;49.068;8.658;2023-11-19T13:21:22;0.40;;;0.40;;
8636;SDS011;4356;49.068;8.658;2023-11-19T13:23:48;0.57;;;0.57;;
8636;SDS011;4356;49.068;8.658;2023-11-19T13:26:13;0.50;;;0.50;;
8636;SDS011;4356;49.068;8.658;2023-11-19T13:28:39;0.50;;;0.50;;
8636;SDS011;4356;49.068;8.658;2023-11-19T13:31:04;0.70;;;0.47;;
8636;SDS011;4356;49.068;8.658;2023-11-19T13:33:30;0.80;;;0.50;;
8636;SDS011;4356;49.068;8.658;2023-11-19T13:35:56;0.50;;;0.50;;
8636;SDS011;4356;49.068;8.658;2023-11-19T13:38:22;0.60;;;0.60;;
8636;SDS011;4356;49.068;8.658;2023-11-19T13:40:49;0.43;;;0.43;;
8636;SDS011;4356;49.068;8.658;2023-11-19T13:43:14;0.70;;;0.70;;
8636;SDS011;4356;49.068;8.658;2023-11-19T13:45:40;0.67;;;0.67;;
8636;SDS011;4356;49.068;8.658;2023-11-19T13:48:05;1.90;;;0.60;;
8636;SDS011;4356;49.068;8.658;2023-11-19T13:50:31;0.63;;;0.63;;
8636;SDS011;4356;49.068;8.658;2023-11-19T13:52:57;0.60;;;0.60;;
8636;SDS011;4356;49.068;8.658;2023-11-19T13:55:22;0.20;;;0.20;;
8636;SDS011;4356;49.068;8.658;2023-11-19T13:57:47;0.50;;;0.50;;
8636;SDS011;4356;49.068;8.658;2023-11-19T14:00:14;0.37;;;0.37;;
8636;SDS011;4356;49.068;8.658;2023-11-19T14:02:43;0.37;;;0.37;;
8636;SDS011;4356;49.068;8.658;2023-11-19T14:05:09;0.60;;;0.60;;
8636;SDS011;4356;49.068;8.658;2023-11-19T14:07:38;0.80;;;0.70;;
8636;SDS011;4356;49.068;8.658;2023-11-19T14:10:04;0.30;;;0.30;;
8636;SDS011;4356;49.068;8.658;2023-11-19T14:12:34;1.83;;;0.77;;
8636;SDS011;4356;49.068;8.658;2023-11-19T14:15:00;1.87;;;0.80;;
8636;SDS011;4356;49.068;8.658;2023-11-19T14:17:26;0.43;;;0.43;;
8636;SDS011;4356;49.068;8.658;2023-11-19T14:19:51;1.33;;;0.70;;
8636;SDS011;4356;49.068;8.658;2023-11-19T14:22:17;1.83;;;0.90;;
8636;SDS011;4356;49.068;8.658;2023-11-19T14:24:42;0.27;;;0.27;;
8636;SDS011;4356;49.068;8.658;2023-11-19T14:27:08;0.30;;;0.30;;
8636;SDS011;4356;49.068;8.658;2023-11-19T14:29:35;0.40;;;0.40;;
8636;SDS011;4356;49.068;8.658;2023-11-19T14:32:01;0.50;;;0.50;;
8636;SDS011;4356;49.068;8.658;2023-11-19T14:34:27;0.30;;;0.30;;
8636;SDS011;4356;49.068;8.658;2023-11-19T14:36:52;0.90;;;0.70;;
8636;SDS011;4356;49.068;8.658;2023-11-19T14:39:18;1.07;;;0.90;;
8636;SDS011;4356;49.068;8.658;2023-11-19T14:41:44;0.57;;;0.57;;
8636;SDS011;4356;49.068;8.658;2023-11-19T14:44:09;0.83;;;0.80;;
8636;SDS011;4356;49.068;8.658;2023-11-19T14:46:35;0.70;;;0.60;;
8636;SDS011;4356;49.068;8.658;2023-11-19T14:49:01;0.50;;;0.50;;
8636;SDS011;4356;49.068;8.658;2023-11-19T14:51:26;0.30;;;0.30;;
8636;SDS011;4356;49.068;8.658;2023-11-19T14:53:52;0.93;;;0.70;;
8636;SDS011;4356;49.068;8.658;2023-11-19T14:56:17;0.57;;;0.57;;
8636;SDS011;4356;49.068;8.658;2023-11-19T14:58:43;1.20;;;0.50;;
8636;SDS011;4356;49.068;8.658;2023-11-19T15:01:13;1.73;;;0.53;;
8636;SDS011;4356;49.068;8.658;2023-11-19T15:03:38;0.80;;;0.80;;
8636;SDS011;4356;49.068;8.658;2023-11-19T15:06:04;0.40;;;0.40;;
8636;SDS011;4356;49.068;8.658;2023-11-19T15:08:31;2.40;;;0.53;;
8636;SDS011;4356;49.068;8.658;2023-11-19T15:10:57;0.60;;;0.60;;
8636;SDS011;4356;49.068;8.658;2023-11-19T15:13:23;0.50;;;0.50;;
8636;SDS011;4356;49.068;8.658;2023-11-19T15:15:49;0.97;;;0.50;;
8636;SDS011;4356;49.068;8.658;2023-11-19T15:18:14;0.40;;;0.40;;
8636;SDS011;4356;49.068;8.658;2023-11-19T15:20:39;0.70;;;0.70;;
8636;SDS011;4356;49.068;8.658;2023-11-19T15:23:04;0.60;;;0.60;;
8636;SDS011;4356;49.068;8.658;2023-11-19T15:25:30;0.50;;;0.50;;
8636;SDS011;4356;49.068;8.658;2023-11-19T15:27:55;1.33;;;0.70;;
8636;SDS011;4356;49.068;8.658;2023-11-19T15:30:20;0.30;;;0.30;;
8636;SDS011;4356;49.068;8.658;2023-11-19T15:32:47;0.60;;;0.53;;
8636;SDS011;4356;49.068;8.658;2023-11-19T15:35:12;0.30;;;0.30;;